Observation data for Guthrie on 03/13/2018      Previous  Date  Next       Current Mesonet Observations  Soil Data  Daily Summary Page  Observations in Plain Language
KPFS 130500Z 12001KT 06/M07 A3025 RMK A01 T00611065  RH  040%=      5-min Rain = 0
KPFS 130505Z 18001KT 05/M07 A3025 RMK A01 T00531068  RH  042%=      5-min Rain = 0
KPFS 130510Z 16001KT 05/M07 A3025 RMK A01 T00471067  RH  044%=      5-min Rain = 0
KPFS 130515Z 11003KT 05/M06 A3025 RMK A01 T00491063  RH  045%=      5-min Rain = 0
KPFS 130520Z 12004KT 06/M06 A3025 RMK A01 T00591058  RH  043%=      5-min Rain = 0
KPFS 130525Z 12003KT 06/M06 A3025 RMK A01 T00611061  RH  042%=      5-min Rain = 0
KPFS 130530Z 15000KT 06/M06 A3025 RMK A01 T00571064  RH  042%=      5-min Rain = 0
KPFS 130535Z 00000KT 05/M07 A3025 RMK A01 T00531066  RH  043%=      5-min Rain = 0
KPFS 130540Z 16001KT 05/M07 A3025 RMK A01 T00511065  RH  043%=      5-min Rain = 0
KPFS 130545Z 20001KT 05/M06 A3025 RMK A01 T00511064  RH  044%=      5-min Rain = 0
KPFS 130550Z 19001KT 05/M07 A3025 RMK A01 T00491065  RH  044%=      5-min Rain = 0
KPFS 130555Z 16001KT 05/M06 A3025 RMK A01 T00481064  RH  045%=      5-min Rain = 0
KPFS 130600Z 15004KT 05/M06 A3024 RMK A01 T00491063  RH  045%=      5-min Rain = 0
KPFS 130605Z 15003KT 05/M06 A3024 RMK A01 T00471064  RH  045%=      5-min Rain = 0
KPFS 130610Z 14003KT 05/M06 A3024 RMK A01 T00461063  RH  046%=      5-min Rain = 0
KPFS 130615Z 14003KT 05/M06 A3024 RMK A01 T00491060  RH  046%=      5-min Rain = 0
KPFS 130620Z 14001KT 05/M06 A3024 RMK A01 T00491062  RH  045%=      5-min Rain = 0
KPFS 130625Z 15001KT 04/M07 A3024 RMK A01 T00441065  RH  046%=      5-min Rain = 0
KPFS 130630Z 16002KT 04/M06 A3024 RMK A01 T00421063  RH  047%=      5-min Rain = 0
KPFS 130635Z 15003KT 04/M07 A3024 RMK A01 T00421065  RH  046%=      5-min Rain = 0
KPFS 130640Z 16003KT 04/M06 A3024 RMK A01 T00431062  RH  047%=      5-min Rain = 0
KPFS 130645Z 17003KT 04/M06 A3024 RMK A01 T00411062  RH  047%=      5-min Rain = 0
KPFS 130650Z 18001KT 04/M06 A3024 RMK A01 T00391063  RH  048%=      5-min Rain = 0
KPFS 130655Z 18001KT 04/M06 A3024 RMK A01 T00381064  RH  048%=      5-min Rain = 0
KPFS 130700Z 16002KT 04/M06 A3024 RMK A01 T00401064  RH  047%=      5-min Rain = 0
KPFS 130705Z 15002KT 04/M06 A3024 RMK A01 T00411063  RH  047%=      5-min Rain = 0
KPFS 130710Z 15001KT 04/M06 A3024 RMK A01 T00421062  RH  047%=      5-min Rain = 0
KPFS 130715Z 15001KT 04/M06 A3024 RMK A01 T00421061  RH  048%=      5-min Rain = 0
KPFS 130720Z 15001KT 04/M06 A3024 RMK A01 T00421060  RH  048%=      5-min Rain = 0
KPFS 130725Z 17001KT 04/M06 A3024 RMK A01 T00431060  RH  047%=      5-min Rain = 0
KPFS 130730Z 15002KT 04/M06 A3024 RMK A01 T00421059  RH  048%=      5-min Rain = 0
KPFS 130735Z 14004KT 05/M06 A3023 RMK A01 T00451057  RH  048%=      5-min Rain = 0
KPFS 130740Z 13004KT 05/M06 A3023 RMK A01 T00491057  RH  047%=      5-min Rain = 0
KPFS 130745Z 15004KT 05/M06 A3023 RMK A01 T00491058  RH  047%=      5-min Rain = 0
KPFS 130750Z 16002KT 04/M07 A3023 RMK A01 T00411066  RH  046%=      5-min Rain = 0
KPFS 130755Z 16002KT 03/M07 A3024 RMK A01 T00341069  RH  047%=      5-min Rain = 0
KPFS 130800Z 18001KT 03/M07 A3024 RMK A01 T00301068  RH  049%=      5-min Rain = 0
KPFS 130805Z 18000KT 03/M07 A3024 RMK A01 T00301067  RH  050%=      5-min Rain = 0
KPFS 130810Z 00000KT 03/M07 A3024 RMK A01 T00321065  RH  049%=      5-min Rain = 0
KPFS 130815Z 35001KT 04/M06 A3024 RMK A01 T00361063  RH  049%=      5-min Rain = 0
KPFS 130820Z 00000KT 03/M07 A3024 RMK A01 T00311065  RH  050%=      5-min Rain = 0
KPFS 130825Z 34000KT 03/M06 A3024 RMK A01 T00331063  RH  050%=      5-min Rain = 0
KPFS 130830Z 35002KT 04/M06 A3024 RMK A01 T00381062  RH  049%=      5-min Rain = 0
KPFS 130835Z 01003KT 03/M07 A3024 RMK A01 T00321067  RH  048%=      5-min Rain = 0
KPFS 130840Z 02003KT 03/M07 A3024 RMK A01 T00291070  RH  049%=      5-min Rain = 0
KPFS 130845Z 03003KT 02/M07 A3024 RMK A01 T00241073  RH  050%=      5-min Rain = 0
KPFS 130850Z 03003KT 03/M07 A3024 RMK A01 T00261070  RH  050%=      5-min Rain = 0
KPFS 130855Z 01004KT 03/M07 A3024 RMK A01 T00291069  RH  049%=      5-min Rain = 0
KPFS 130900Z 01003KT 02/M07 A3024 RMK A01 T00241072  RH  050%=      5-min Rain = 0
KPFS 130905Z 03003KT 02/M07 A3024 RMK A01 T00241070  RH  050%=      5-min Rain = 0
KPFS 130910Z 03004KT 02/M07 A3024 RMK A01 T00211072  RH  051%=      5-min Rain = 0
KPFS 130915Z 03003KT 02/M07 A3024 RMK A01 T00231069  RH  051%=      5-min Rain = 0
KPFS 130920Z 03004KT 03/M07 A3024 RMK A01 T00251070  RH  050%=      5-min Rain = 0
KPFS 130925Z 03004KT 03/M07 A3023 RMK A01 T00281069  RH  050%=      5-min Rain = 0
KPFS 130930Z 02004KT 03/M07 A3024 RMK A01 T00341066  RH  048%=      5-min Rain = 0
KPFS 130935Z 01002KT 04/M07 A3024 RMK A01 T00351069  RH  047%=      5-min Rain = 0
KPFS 130940Z 01002KT 03/M07 A3024 RMK A01 T00311066  RH  049%=      5-min Rain = 0
KPFS 130945Z 01002KT 04/M07 A3024 RMK A01 T00351066  RH  048%=      5-min Rain = 0
KPFS 130950Z 00003KT 02/M08 A3024 RMK A01 T00201076  RH  050%=      5-min Rain = 0
KPFS 130955Z 01002KT 02/M07 A3024 RMK A01 T00241066  RH  052%=      5-min Rain = 0
KPFS 131000Z 01002KT 03/M07 A3025 RMK A01 T00281067  RH  050%=      5-min Rain = 0
KPFS 131005Z 36002KT 02/M07 A3025 RMK A01 T00181074  RH  051%=      5-min Rain = 0
KPFS 131010Z 01002KT 02/M07 A3025 RMK A01 T00161072  RH  053%=      5-min Rain = 0
KPFS 131015Z 02003KT 02/M07 A3025 RMK A01 T00181071  RH  053%=      5-min Rain = 0
KPFS 131020Z 36003KT 02/M07 A3025 RMK A01 T00231067  RH  052%=      5-min Rain = 0
KPFS 131025Z 00003KT 03/M07 A3025 RMK A01 T00291066  RH  050%=      5-min Rain = 0
KPFS 131030Z 00003KT 03/M07 A3025 RMK A01 T00311066  RH  050%=      5-min Rain = 0
KPFS 131035Z 01003KT 03/M07 A3025 RMK A01 T00321065  RH  049%=      5-min Rain = 0
KPFS 131040Z 01004KT 03/M07 A3026 RMK A01 T00301066  RH  050%=      5-min Rain = 0
KPFS 131045Z 01002KT 03/M07 A3026 RMK A01 T00281067  RH  050%=      5-min Rain = 0
KPFS 131050Z 36001KT 02/M07 A3026 RMK A01 T00231069  RH  051%=      5-min Rain = 0
KPFS 131055Z 35002KT 03/M07 A3026 RMK A01 T00251066  RH  052%=      5-min Rain = 0
KPFS 131100Z 01004KT 03/M07 A3026 RMK A01 T00301066  RH  050%=      5-min Rain = 0
KPFS 131105Z 02004KT 03/M07 A3026 RMK A01 T00261067  RH  051%=      5-min Rain = 0
KPFS 131110Z 03005KT 02/M07 A3026 RMK A01 T00241067  RH  052%=      5-min Rain = 0
KPFS 131115Z 03006KT 02/M07 A3026 RMK A01 T00231067  RH  052%=      5-min Rain = 0
KPFS 131120Z 03006KT 02/M07 A3027 RMK A01 T00201068  RH  053%=      5-min Rain = 0
KPFS 131125Z 03006KT 02/M07 A3027 RMK A01 T00191068  RH  053%=      5-min Rain = 0
KPFS 131130Z 03005KT 02/M07 A3027 RMK A01 T00181068  RH  053%=      5-min Rain = 0
KPFS 131135Z 03004KT 02/M07 A3028 RMK A01 T00211067  RH  053%=      5-min Rain = 0
KPFS 131140Z 03003KT 02/M08 A3028 RMK A01 T00151077  RH  051%=      5-min Rain = 0
KPFS 131145Z 02004KT 02/M07 A3028 RMK A01 T00151067  RH  055%=      5-min Rain = 0
KPFS 131150Z 02004KT 02/M07 A3028 RMK A01 T00231066  RH  052%=      5-min Rain = 0
KPFS 131155Z 02004KT 03/M07 A3028 RMK A01 T00261066  RH  051%=      5-min Rain = 0
KPFS 131200Z 02004KT 03/M07 A3028 RMK A01 T00261066  RH  051%=      5-min Rain = 0
KPFS 131205Z 02004KT 03/M07 A3028 RMK A01 T00261065  RH  052%=      5-min Rain = 0
KPFS 131210Z 02003KT 02/M07 A3028 RMK A01 T00231069  RH  051%=      5-min Rain = 0
KPFS 131215Z 02002KT 01/M08 A3029 RMK A01 T00111076  RH  053%=      5-min Rain = 0
KPFS 131220Z 01002KT 01/M07 A3029 RMK A01 T00071073  RH  056%=      5-min Rain = 0
KPFS 131225Z 00003KT 01/M07 A3029 RMK A01 T00051074  RH  056%=      5-min Rain = 0
KPFS 131230Z 01003KT 01/M07 A3029 RMK A01 T00101067  RH  057%=      5-min Rain = 0
KPFS 131235Z 01002KT 02/M07 A3029 RMK A01 T00161066  RH  055%=      5-min Rain = 0
KPFS 131240Z 36002KT 02/M07 A3029 RMK A01 T00161068  RH  054%=      5-min Rain = 0
KPFS 131245Z 01003KT 02/M07 A303 RMK A01 T00171068  RH  054%=      5-min Rain = 0
KPFS 131250Z 01004KT 02/M07 A303 RMK A01 T00191067  RH  054%=      5-min Rain = 0
KPFS 131255Z 02005KT 01/M07 A303 RMK A01 T00141069  RH  055%=      5-min Rain = 0
KPFS 131300Z 02005KT 01/M07 A3031 RMK A01 T00061072  RH  056%=      5-min Rain = 0
KPFS 131305Z 02005KT 01/M07 A3031 RMK A01 T00061071  RH  057%=      5-min Rain = 0
KPFS 131310Z 01004KT 01/M07 A3031 RMK A01 T00091070  RH  056%=      5-min Rain = 0
KPFS 131315Z 02006KT 01/M07 A3031 RMK A01 T00101069  RH  056%=      5-min Rain = 0
KPFS 131320Z 02007KT 01/M07 A3031 RMK A01 T00111068  RH  056%=      5-min Rain = 0
KPFS 131325Z 02008KT 01/M07 A3032 RMK A01 T00131068  RH  055%=      5-min Rain = 0
KPFS 131330Z 03008KT 01/M07 A3033 RMK A01 T00131069  RH  055%=      5-min Rain = 0
KPFS 131335Z 02008KT 01/M07 A3033 RMK A01 T00141069  RH  055%=      5-min Rain = 0
KPFS 131340Z 03008KT 02/M07 A3033 RMK A01 T00161068  RH  054%=      5-min Rain = 0
KPFS 131345Z 03007KT 02/M07 A3033 RMK A01 T00191066  RH  054%=      5-min Rain = 0
KPFS 131350Z 03006KT 02/M06 A3033 RMK A01 T00231064  RH  053%=      5-min Rain = 0
KPFS 131355Z 03006KT 03/M06 A3033 RMK A01 T00271063  RH  052%=      5-min Rain = 0
KPFS 131400Z 03007KT 03/M06 A3033 RMK A01 T00301062  RH  051%=      5-min Rain = 0
KPFS 131405Z 03006KT 03/M06 A3033 RMK A01 T00341060  RH  051%=      5-min Rain = 0
KPFS 131410Z 03006KT 04/M06 A3033 RMK A01 T00391058  RH  050%=      5-min Rain = 0
KPFS 131415Z 03006KT 04/M06 A3033 RMK A01 T00441057  RH  049%=      5-min Rain = 0
KPFS 131420Z 03006KT 05/M06 A3034 RMK A01 T00491056  RH  047%=      5-min Rain = 0
KPFS 131425Z 03007KT 05/M06 A3034 RMK A01 T00531055  RH  046%=      5-min Rain = 0
KPFS 131430Z 03008KT 06/M05 A3034 RMK A01 T00571053  RH  045%=      5-min Rain = 0
KPFS 131435Z 03008KT 06/M05 A3034 RMK A01 T00571054  RH  045%=      5-min Rain = 0
KPFS 131440Z 02007KT 06/M06 A3034 RMK A01 T00581055  RH  045%=      5-min Rain = 0
KPFS 131445Z 03006KT 06/M05 A3035 RMK A01 T00631053  RH  044%=      5-min Rain = 0
KPFS 131450Z 04006KT 07/M05 A3035 RMK A01 T00701053  RH  042%=      5-min Rain = 0
KPFS 131455Z 04006KT 08/M06 A3035 RMK A01 T00751055  RH  040%=      5-min Rain = 0
KPFS 131500Z 05006KT 08/M06 A3035 RMK A01 T00771056  RH  039%=      5-min Rain = 0
KPFS 131505Z 05005KT 08/M06 A3035 RMK A01 T00831055  RH  038%=      5-min Rain = 0
KPFS 131510Z 05005KT 09/M06 A3035 RMK A01 T00881055  RH  036%=      5-min Rain = 0
KPFS 131515Z 05005KT 09/M06 A3035 RMK A01 T00911056  RH  035%=      5-min Rain = 0
KPFS 131520Z 06005KT 10/M06 A3035 RMK A01 T00951055  RH  035%=      5-min Rain = 0
KPFS 131525Z 06006KT 10/M06 A3035 RMK A01 T00961057  RH  034%=      5-min Rain = 0
KPFS 131530Z 07007KT 10/M06 A3035 RMK A01 T01001059  RH  032%=      5-min Rain = 0
KPFS 131535Z 07007KT 10/M07 A3035 RMK A01 T01011065  RH  031%=      5-min Rain = 0
KPFS 131540Z 09006KT 10/M07 A3035 RMK A01 T01011066  RH  030%=      5-min Rain = 0
KPFS 131545Z 09006G11KT 11/M07 A3035 RMK A01 T01051065  RH  030%=      5-min Rain = 0
KPFS 131550Z 07006KT 11/M07 A3035 RMK A01 T01061068  RH  029%=      5-min Rain = 0
KPFS 131555Z 08006KT 11/M07 A3035 RMK A01 T01101069  RH  028%=      5-min Rain = 0
KPFS 131600Z 08006KT 11/M07 A3035 RMK A01 T01111068  RH  028%=      5-min Rain = 0
KPFS 131605Z 09006KT 12/M07 A3036 RMK A01 T01151065  RH  028%=      5-min Rain = 0
KPFS 131610Z 10008KT 12/M07 A3036 RMK A01 T01161065  RH  028%=      5-min Rain = 0
KPFS 131615Z 10006KT 12/M06 A3036 RMK A01 T01201063  RH  028%=      5-min Rain = 0
KPFS 131620Z 09007KT 12/M06 A3036 RMK A01 T01231063  RH  027%=      5-min Rain = 0
KPFS 131625Z 08005KT 12/M06 A3036 RMK A01 T01221064  RH  027%=      5-min Rain = 0
KPFS 131630Z 09006KT 12/M06 A3036 RMK A01 T01231064  RH  027%=      5-min Rain = 0
KPFS 131635Z 09007KT 13/M06 A3036 RMK A01 T01291063  RH  026%=      5-min Rain = 0
KPFS 131640Z 08006KT 13/M06 A3036 RMK A01 T01281064  RH  026%=      5-min Rain = 0
KPFS 131645Z 08006G11KT 13/M06 A3036 RMK A01 T01341063  RH  025%=      5-min Rain = 0
KPFS 131650Z 11006KT 13/M06 A3036 RMK A01 T01341064  RH  025%=      5-min Rain = 0
KPFS 131655Z 06007KT 14/M06 A3036 RMK A01 T01391063  RH  024%=      5-min Rain = 0
KPFS 131700Z 08008G16KT 14/M07 A3036 RMK A01 T01381065  RH  024%=      5-min Rain = 0
KPFS 131705Z 08006KT 14/M07 A3035 RMK A01 T01361065  RH  025%=      5-min Rain = 0
KPFS 131710Z 07006G11KT 14/M06 A3035 RMK A01 T01401064  RH  024%=      5-min Rain = 0
KPFS 131715Z 09005G13KT 14/M06 A3035 RMK A01 T01411064  RH  024%=      5-min Rain = 0
KPFS 131720Z 12005G12KT 14/M07 A3035 RMK A01 T01431065  RH  023%=      5-min Rain = 0
KPFS 131725Z 12008KT 14/M07 A3035 RMK A01 T01421065  RH  024%=      5-min Rain = 0
KPFS 131730Z 13006KT 14/M07 A3035 RMK A01 T01441065  RH  023%=      5-min Rain = 0
KPFS 131735Z 10008G14KT 15/M06 A3035 RMK A01 T01491063  RH  023%=      5-min Rain = 0
KPFS 131740Z 10006KT 15/M06 A3035 RMK A01 T01451064  RH  023%=      5-min Rain = 0
KPFS 131745Z 10008KT 15/M06 A3034 RMK A01 T01481063  RH  023%=      5-min Rain = 0
KPFS 131750Z 08006G15KT 15/M06 A3034 RMK A01 T01481063  RH  023%=      5-min Rain = 0
KPFS 131755Z 12006G15KT 15/M06 A3034 RMK A01 T01451064  RH  023%=      5-min Rain = 0
KPFS 131800Z 06006G11KT 15/M06 A3034 RMK A01 T01451063  RH  023%=      5-min Rain = 0
KPFS 131805Z 10007G12KT 15/M06 A3034 RMK A01 T01501062  RH  023%=      5-min Rain = 0
KPFS 131810Z 11007G12KT 15/M06 A3034 RMK A01 T01531062  RH  022%=      5-min Rain = 0
KPFS 131815Z 10008KT 15/M06 A3033 RMK A01 T01501063  RH  023%=      5-min Rain = 0
KPFS 131820Z 12007G14KT 16/M06 A3033 RMK A01 T01551062  RH  022%=      5-min Rain = 0
KPFS 131825Z 09007G13KT 15/M06 A3033 RMK A01 T01541063  RH  022%=      5-min Rain = 0
KPFS 131830Z 08007G12KT 16/M06 A3032 RMK A01 T01571061  RH  022%=      5-min Rain = 0
KPFS 131835Z 07007G12KT 16/M06 A3032 RMK A01 T01571061  RH  022%=      5-min Rain = 0
KPFS 131840Z 08008G13KT 16/M06 A3032 RMK A01 T01571060  RH  022%=      5-min Rain = 0
KPFS 131845Z 07006G12KT 16/M06 A3031 RMK A01 T01571060  RH  022%=      5-min Rain = 0
KPFS 131850Z 04007G12KT 17/M06 A3031 RMK A01 T01661060  RH  021%=      5-min Rain = 0
KPFS 131855Z 04006KT 16/M06 A3031 RMK A01 T01601060  RH  022%=      5-min Rain = 0
KPFS 131900Z 04006KT 16/M06 A3031 RMK A01 T01581060  RH  022%=      5-min Rain = 0
KPFS 131905Z 05005KT 16/M06 A3031 RMK A01 T01611060  RH  022%=      5-min Rain = 0
KPFS 131910Z 05006KT 16/M06 A3031 RMK A01 T01621059  RH  022%=      5-min Rain = 0
KPFS 131915Z 04005G11KT 16/M06 A303 RMK A01 T01601060  RH  022%=      5-min Rain = 0
KPFS 131920Z 09004G9KT 17/M06 A303 RMK A01 T01651059  RH  021%=      5-min Rain = 0
KPFS 131925Z 03008G13KT 17/M06 A303 RMK A01 T01711060  RH  020%=      5-min Rain = 0
KPFS 131930Z 03006KT 17/M06 A303 RMK A01 T01681061  RH  021%=      5-min Rain = 0
KPFS 131935Z 06005KT 16/M06 A303 RMK A01 T01631061  RH  021%=      5-min Rain = 0
KPFS 131940Z 09007KT 17/M06 A3029 RMK A01 T01661060  RH  021%=      5-min Rain = 0
KPFS 131945Z 06007G12KT 17/M06 A3029 RMK A01 T01651061  RH  021%=      5-min Rain = 0
KPFS 131950Z 02007G12KT 17/M06 A3029 RMK A01 T01691061  RH  020%=      5-min Rain = 0
KPFS 131955Z 05007G13KT 17/M06 A3029 RMK A01 T01721061  RH  020%=      5-min Rain = 0
KPFS 132000Z 08006KT 17/M06 A3029 RMK A01 T01731061  RH  020%=      5-min Rain = 0
KPFS 132005Z 06004KT 17/M06 A3029 RMK A01 T01701062  RH  020%=      5-min Rain = 0
KPFS 132010Z 05007G13KT 17/M06 A3028 RMK A01 T01711062  RH  020%=      5-min Rain = 0
KPFS 132015Z 04007G12KT 17/M06 A3028 RMK A01 T01741063  RH  019%=      5-min Rain = 0
KPFS 132020Z 06007G12KT 18/M06 A3027 RMK A01 T01751063  RH  019%=      5-min Rain = 0
KPFS 132025Z 09006KT 17/M07 A3027 RMK A01 T01731065  RH  019%=      5-min Rain = 0
KPFS 132030Z 04009KT 17/M07 A3027 RMK A01 T01701065  RH  020%=      5-min Rain = 0
KPFS 132035Z 06006KT 17/M07 A3027 RMK A01 T01711065  RH  020%=      5-min Rain = 0
KPFS 132040Z 08006KT 18/M06 A3027 RMK A01 T01771064  RH  019%=      5-min Rain = 0
KPFS 132045Z 12009G14KT 18/M07 A3027 RMK A01 T01781065  RH  019%=      5-min Rain = 0
KPFS 132050Z 08008KT 18/M07 A3026 RMK A01 T01791065  RH  019%=      5-min Rain = 0
KPFS 132055Z 04012KT 18/M07 A3026 RMK A01 T01801067  RH  018%=      5-min Rain = 0
KPFS 132100Z 04007KT 17/M07 A3026 RMK A01 T01721066  RH  019%=      5-min Rain = 0
KPFS 132105Z 07007KT 18/M07 A3027 RMK A01 T01781067  RH  018%=      5-min Rain = 0
KPFS 132110Z 07005G12KT 18/M07 A3027 RMK A01 T01801066  RH  018%=      5-min Rain = 0
KPFS 132115Z 07008KT 18/M07 A3027 RMK A01 T01821066  RH  018%=      5-min Rain = 0
KPFS 132120Z 03008KT 18/M07 A3027 RMK A01 T01791068  RH  018%=      5-min Rain = 0
KPFS 132125Z 04006G13KT 18/M07 A3027 RMK A01 T01771066  RH  019%=      5-min Rain = 0
KPFS 132130Z 05010G15KT 18/M07 A3026 RMK A01 T01791068  RH  018%=      5-min Rain = 0
KPFS 132135Z 04007G14KT 18/M07 A3026 RMK A01 T01781068  RH  018%=      5-min Rain = 0
KPFS 132140Z 04008KT 18/M07 A3026 RMK A01 T01791070  RH  018%=      5-min Rain = 0
KPFS 132145Z 04007KT 18/M07 A3026 RMK A01 T01781070  RH  018%=      5-min Rain = 0
KPFS 132150Z 04007KT 18/M07 A3025 RMK A01 T01791069  RH  018%=      5-min Rain = 0
KPFS 132155Z 06008G13KT 18/M07 A3025 RMK A01 T01841069  RH  017%=      5-min Rain = 0
KPFS 132200Z 07010G18KT 18/M07 A3025 RMK A01 T01821069  RH  018%=      5-min Rain = 0
KPFS 132205Z 08008G15KT 18/M07 A3025 RMK A01 T01771069  RH  018%=      5-min Rain = 0
KPFS 132210Z 10007G13KT 18/M07 A3025 RMK A01 T01761069  RH  018%=      5-min Rain = 0
KPFS 132215Z 10007G13KT 18/M07 A3025 RMK A01 T01791069  RH  018%=      5-min Rain = 0
KPFS 132220Z 06010KT 18/M07 A3025 RMK A01 T01801071  RH  018%=      5-min Rain = 0
KPFS 132225Z 05010KT 18/M07 A3025 RMK A01 T01781071  RH  018%=      5-min Rain = 0
KPFS 132230Z 03004G10KT 18/M07 A3025 RMK A01 T01751070  RH  018%=      5-min Rain = 0
KPFS 132235Z 07009KT 18/M07 A3025 RMK A01 T01801069  RH  018%=      5-min Rain = 0
KPFS 132240Z 07008G15KT 18/M07 A3025 RMK A01 T01771070  RH  018%=      5-min Rain = 0
KPFS 132245Z 05009KT 18/M07 A3025 RMK A01 T01751069  RH  018%=      5-min Rain = 0
KPFS 132250Z 04009G15KT 18/M07 A3025 RMK A01 T01751069  RH  018%=      5-min Rain = 0
KPFS 132255Z 04011KT 17/M07 A3025 RMK A01 T01741069  RH  019%=      5-min Rain = 0
KPFS 132300Z 06010KT 17/M07 A3025 RMK A01 T01721069  RH  019%=      5-min Rain = 0
KPFS 132305Z 08008KT 17/M07 A3025 RMK A01 T01711069  RH  019%=      5-min Rain = 0
KPFS 132310Z 05009KT 17/M07 A3025 RMK A01 T01731069  RH  019%=      5-min Rain = 0
KPFS 132315Z 05008KT 17/M07 A3026 RMK A01 T01721069  RH  019%=      5-min Rain = 0
KPFS 132320Z 06009KT 17/M07 A3026 RMK A01 T01711070  RH  019%=      5-min Rain = 0
KPFS 132325Z 05008G13KT 17/M07 A3025 RMK A01 T01711069  RH  019%=      5-min Rain = 0
KPFS 132330Z 05009G14KT 17/M07 A3025 RMK A01 T01711069  RH  019%=      5-min Rain = 0
KPFS 132335Z 06009G14KT 17/M07 A3025 RMK A01 T01671068  RH  019%=      5-min Rain = 0
KPFS 132340Z 05010KT 17/M07 A3025 RMK A01 T01651068  RH  020%=      5-min Rain = 0
KPFS 132345Z 06009G15KT 16/M07 A3025 RMK A01 T01631067  RH  020%=      5-min Rain = 0
KPFS 132350Z 06009KT 16/M07 A3026 RMK A01 T01641067  RH  020%=      5-min Rain = 0
KPFS 132355Z 06008KT 16/M07 A3026 RMK A01 T01621066  RH  020%=      5-min Rain = 0
KPFS 140000Z 07009KT 16/M07 A3026 RMK A01 T01621066  RH  021%=      5-min Rain = 0
KPFS 140005Z 06009KT 16/M07 A3026 RMK A01 T01581066  RH  021%=      5-min Rain = 0
KPFS 140010Z 07008KT 16/M07 A3026 RMK A01 T01571066  RH  021%=      5-min Rain = 0
KPFS 140015Z 06007KT 16/M07 A3026 RMK A01 T01551067  RH  021%=      5-min Rain = 0
KPFS 140020Z 07008KT 15/M07 A3025 RMK A01 T01521066  RH  022%=      5-min Rain = 0
KPFS 140025Z 07007KT 15/M07 A3025 RMK A01 T01491066  RH  022%=      5-min Rain = 0
KPFS 140030Z 07007KT 15/M07 A3026 RMK A01 T01461066  RH  023%=      5-min Rain = 0
KPFS 140035Z 07007KT 14/M07 A3026 RMK A01 T01421066  RH  023%=      5-min Rain = 0
KPFS 140040Z 07008KT 14/M07 A3026 RMK A01 T01381066  RH  024%=      5-min Rain = 0
KPFS 140045Z 08008KT 13/M07 A3026 RMK A01 T01341066  RH  025%=      5-min Rain = 0
KPFS 140050Z 08008KT 13/M07 A3026 RMK A01 T01311066  RH  025%=      5-min Rain = 0
KPFS 140055Z 08008KT 13/M07 A3026 RMK A01 T01281066  RH  026%=      5-min Rain = 0
KPFS 140100Z 08008KT 13/M07 A3026 RMK A01 T01261066  RH  026%=      5-min Rain = 0
KPFS 140105Z 08008KT 12/M07 A3027 RMK A01 T01231067  RH  026%=      5-min Rain = 0
KPFS 140110Z 09008KT 12/M07 A3027 RMK A01 T01201066  RH  027%=      5-min Rain = 0
KPFS 140115Z 09008KT 12/M07 A3027 RMK A01 T01191066  RH  027%=      5-min Rain = 0
KPFS 140120Z 09008KT 12/M07 A3027 RMK A01 T01191066  RH  027%=      5-min Rain = 0
KPFS 140125Z 09008KT 12/M07 A3027 RMK A01 T01171066  RH  027%=      5-min Rain = 0
KPFS 140130Z 09008KT 12/M07 A3028 RMK A01 T01171066  RH  027%=      5-min Rain = 0
KPFS 140135Z 08009KT 12/M07 A3028 RMK A01 T01161066  RH  028%=      5-min Rain = 0
KPFS 140140Z 09009KT 12/M07 A3028 RMK A01 T01161066  RH  028%=      5-min Rain = 0
KPFS 140145Z 09009KT 11/M07 A3028 RMK A01 T01131067  RH  028%=      5-min Rain = 0
KPFS 140150Z 09009KT 11/M07 A3028 RMK A01 T01121067  RH  028%=      5-min Rain = 0
KPFS 140155Z 09009KT 11/M07 A3028 RMK A01 T01111067  RH  028%=      5-min Rain = 0
KPFS 140200Z 09009KT 11/M07 A3029 RMK A01 T01091068  RH  029%=      5-min Rain = 0
KPFS 140205Z 09009KT 11/M07 A3029 RMK A01 T01101068  RH  028%=      5-min Rain = 0
KPFS 140210Z 09009KT 11/M07 A3029 RMK A01 T01111069  RH  028%=      5-min Rain = 0
KPFS 140215Z 09009KT 11/M07 A3029 RMK A01 T01111069  RH  028%=      5-min Rain = 0
KPFS 140220Z 09009KT 11/M07 A303 RMK A01 T01111069  RH  028%=      5-min Rain = 0
KPFS 140225Z 09008KT 11/M07 A303 RMK A01 T01081069  RH  029%=      5-min Rain = 0
KPFS 140230Z 08009KT 11/M07 A303 RMK A01 T01061069  RH  029%=      5-min Rain = 0
KPFS 140235Z 08009KT 11/M07 A303 RMK A01 T01071069  RH  029%=      5-min Rain = 0
KPFS 140240Z 08009KT 11/M07 A303 RMK A01 T01061069  RH  029%=      5-min Rain = 0
KPFS 140245Z 08009KT 11/M07 A303 RMK A01 T01051070  RH  029%=      5-min Rain = 0
KPFS 140250Z 08009KT 11/M07 A303 RMK A01 T01061070  RH  029%=      5-min Rain = 0
KPFS 140255Z 09010KT 10/M07 A303 RMK A01 T01031070  RH  029%=      5-min Rain = 0
KPFS 140300Z 09009KT 10/M07 A3031 RMK A01 T01021069  RH  030%=      5-min Rain = 0
KPFS 140305Z 09010KT 10/M07 A3031 RMK A01 T01001069  RH  030%=      5-min Rain = 0
KPFS 140310Z 08009KT 10/M07 A3031 RMK A01 T01011069  RH  030%=      5-min Rain = 0
KPFS 140315Z 08009KT 10/M07 A3031 RMK A01 T00991070  RH  030%=      5-min Rain = 0
KPFS 140320Z 08009KT 10/M07 A3031 RMK A01 T00971070  RH  031%=      5-min Rain = 0
KPFS 140325Z 08009KT 10/M07 A3031 RMK A01 T00961070  RH  031%=      5-min Rain = 0
KPFS 140330Z 08009KT 10/M07 A3032 RMK A01 T00951070  RH  031%=      5-min Rain = 0
KPFS 140335Z 08009KT 09/M07 A3032 RMK A01 T00921071  RH  031%=      5-min Rain = 0
KPFS 140340Z 08009KT 09/M07 A3032 RMK A01 T00911071  RH  032%=      5-min Rain = 0
KPFS 140345Z 08009KT 09/M07 A3032 RMK A01 T00911071  RH  031%=      5-min Rain = 0
KPFS 140350Z 07009KT 09/M07 A3032 RMK A01 T00911071  RH  031%=      5-min Rain = 0
KPFS 140355Z 07009KT 09/M07 A3032 RMK A01 T00921072  RH  031%=      5-min Rain = 0
KPFS 140400Z 08009KT 09/M07 A3032 RMK A01 T00911072  RH  031%=      5-min Rain = 0
KPFS 140405Z 08009KT 09/M07 A3033 RMK A01 T00891072  RH  032%=      5-min Rain = 0
KPFS 140410Z 08009KT 09/M07 A3033 RMK A01 T00901073  RH  031%=      5-min Rain = 0
KPFS 140415Z 08009KT 09/M07 A3032 RMK A01 T00911074  RH  031%=      5-min Rain = 0
KPFS 140420Z 08009KT 09/M07 A3033 RMK A01 T00901074  RH  031%=      5-min Rain = 0
KPFS 140425Z 09009KT 09/M07 A3033 RMK A01 T00881073  RH  032%=      5-min Rain = 0
KPFS 140430Z 09009KT 09/M07 A3032 RMK A01 T00871074  RH  032%=      5-min Rain = 0
KPFS 140435Z 09008KT 09/M07 A3032 RMK A01 T00861074  RH  032%=      5-min Rain = 0
KPFS 140440Z 09008KT 08/M07 A3033 RMK A01 T00841074  RH  032%=      5-min Rain = 0
KPFS 140445Z 09008KT 08/M07 A3032 RMK A01 T00831074  RH  032%=      5-min Rain = 0
KPFS 140450Z 09009KT 08/M08 A3032 RMK A01 T00821075  RH  033%=      5-min Rain = 0
KPFS 140455Z 09008KT 08/M08 A3032 RMK A01 T00811075  RH  033%=      5-min Rain = 0

Page generated in 0.0151 seconds.